Relevés horaires Gornergrat (Suisse)


Relevés horaires à Gornergrat - Lundi 12 Oct. 2015
Heure UTC1 Température [°C] Vent [km/h] Hum. [%] Pres.4 [hPa] Visi. [Km] Nébu. [octa] Préc.5 [mm] Cond.
2m. Res. Ros. Dir.2 Vit. Moy. Raf.3
23:00 -0.8 -5 -3.5 O 13.0 14.8 27.8 82 700(0.1/3h) -- -- -- --
22:00 0.4 -4.2 -3.5 OSO 16.7 16.7 33.3 75 700(0.0/3h) -- -- -- --
21:00 -0.9 -5.8 -2.7 NNO 16.7 16.7 29.6 88 700(-0.2/3h) -- -- -- --
20:00 -1.1 -4.9 -2.5 N 11.1 11.1 18.5 90 700(-0.5/3h) -- -- -- --
19:00 -2.2 -2.2 -3.5 N 3.7 5.6 13.0 91 700(-0.2/3h) -- -- -- --
18:00 -3.1 -5.4 -3.4 SE 5.6 9.3 16.7 98 700(0.1/3h) -- -- -- --
17:00 -4.2 -6.7 -4.8 N 5.6 9.3 16.7 96 700(0.2/3h) -- -- -- --
16:00 -1.3 -3.3 -6.0 ESE 5.6 7.4 14.8 70 700(0.2/3h) -- -- -- --
15:00 -0.2 -2.1 -7.5 S 5.6 7.4 14.8 58 700(-0.1/3h) -- -- -- --
14:00 -0.7 -0.7 -9.3 SE 3.7 7.4 14.8 52 700(-0.2/3h) -- -- -- --
13:00 0.6 -1.2 -8.6 SE 5.6 5.6 14.8 50 700(-0.1/3h) -- -- -- --
12:00 1.6 -0 -10.2 SE 5.6 7.4 18.5 41 700(0.4/3h) -- -- -- --
11:00 0.2 -2.3 -11.8 SSE 7.4 7.4 18.5 40 700(0.9/3h) -- -- -- --
10:00 1.6 -0 -11.2 ESE 5.6 5.6 16.7 38 700(1.0/3h) -- -- -- --
09:00 1.3 -0.4 -16.3 SSE 5.6 7.4 14.8 25 700(1.0/3h) -- -- -- --
08:00 2.0 0.4 -16.2 SSE 5.6 5.6 11.1 24 700(0.7/3h) -- -- -- --
07:00 0.6 0.6 -16.4 SE 3.7 5.6 9.3 27 700(0.7/3h) -- -- -- --
06:00 -0.3 -0.3 -24.1 SE 3.7 7.4 13.0 15 700(0.5/3h) -- -- -- --
05:00 -0.7 -3.4 -23.1 SSE 7.4 7.4 11.1 16 700(0.4/3h) -- -- -- --
04:00 -0.3 -2.2 -27.9 ONO 5.6 7.4 11.1 10 700(0.1/3h) -- -- -- --
03:00 -0.1 -2.7 -26.4 SO 7.4 7.4 13.0 12 700(0.0/3h) -- -- -- --
02:00 0.3 0.3 -26.3 SSO 3.7 5.6 9.3 11 700 -- -- -- --
01:00 0.0 -1.9 -25.5 S 5.6 7.4 11.1 13 700(0.1/3h) -- -- -- --
00:00 0.0 -1.9 -28.7 SSE 5.6 7.4 16.7 9 700(0.3/3h) -- -- -- --

1 Coordinated Universal Time. Actuellement il est 21:00 locale et 19:00 UTC.

2 Le vent souffle depuis la direction indiquée vers la direction oposée.

3 Les rafales max. sont disponible 40 min après l'heure du relevé.

4 Pour les stations d'altitude (plus de 600m) le géopotentiel du niveau le plus proche de la pression obligatoire est indiqué.

5 Les stations disposant d'un diffuseur peuvent indiquer "trace". Cela signifie que des précipitations ont touchés le sol mais que la quantité est inférieure à 0.1 mm.

Copyright

Les données affichées sur cette page sont la propriété exclusive de Météo Suisse.

Récapitulatif de la journée
Température [°C] Vent [km/h] Ensoleillement4 [h] Precipitations totale5 [mm] Pression [Hpa]
Min1 Max.2 Moy.3 Max. Min Max.
-0.7 2.3 8.3 33.3 5 h 24 min 0 700.0 700.0

1 Température minimale relevée entre 18:00 UTC la veille et 18:00 UTC le jour donné.

2 Température maximale relevée entre 06:00 UTC le jour donné et 06:00 UTC le lendemain.

3 Vent moyen de la journée basé sur les relevés horaires.

4 Ensoleillement en heures relevé entre 06:00 UTC la veille et 06:00 UTC le jour donné.

5 Précipitations totales tombées entre 06:00 UTC la jour donné et 06:00 UTC le lendemain.

Graphiques horaires